sensor_id;sensor_type;location;lat;lon;timestamp;P1;durP1;ratioP1;P2;durP2;ratioP2
71937;SDS011;59810;48.800;9.086;2023-05-19T00:01:10;7.07;;;2.35;;
71937;SDS011;59810;48.800;9.086;2023-05-19T00:03:50;8.95;;;2.47;;
71937;SDS011;59810;48.800;9.086;2023-05-19T00:06:21;8.45;;;2.17;;
71937;SDS011;59810;48.800;9.086;2023-05-19T00:08:49;6.80;;;2.00;;
71937;SDS011;59810;48.800;9.086;2023-05-19T00:11:23;8.00;;;2.10;;
71937;SDS011;59810;48.800;9.086;2023-05-19T00:13:55;5.82;;;1.75;;
71937;SDS011;59810;48.800;9.086;2023-05-19T00:16:22;9.40;;;1.70;;
71937;SDS011;59810;48.800;9.086;2023-05-19T00:18:49;7.95;;;1.80;;
71937;SDS011;59810;48.800;9.086;2023-05-19T00:21:18;7.00;;;1.80;;
71937;SDS011;59810;48.800;9.086;2023-05-19T00:23:44;7.47;;;1.83;;
71937;SDS011;59810;48.800;9.086;2023-05-19T00:26:10;8.82;;;2.42;;
71937;SDS011;59810;48.800;9.086;2023-05-19T00:28:35;6.73;;;1.80;;
71937;SDS011;59810;48.800;9.086;2023-05-19T00:31:03;5.30;;;1.80;;
71937;SDS011;59810;48.800;9.086;2023-05-19T00:33:29;7.97;;;2.25;;
71937;SDS011;59810;48.800;9.086;2023-05-19T00:35:54;6.80;;;1.90;;
71937;SDS011;59810;48.800;9.086;2023-05-19T00:38:20;10.00;;;2.30;;
71937;SDS011;59810;48.800;9.086;2023-05-19T00:40:47;6.45;;;1.60;;
71937;SDS011;59810;48.800;9.086;2023-05-19T00:43:13;4.80;;;1.53;;
71937;SDS011;59810;48.800;9.086;2023-05-19T00:45:38;5.30;;;1.70;;
71937;SDS011;59810;48.800;9.086;2023-05-19T00:48:06;5.82;;;1.50;;
71937;SDS011;59810;48.800;9.086;2023-05-19T00:50:34;7.73;;;1.90;;
71937;SDS011;59810;48.800;9.086;2023-05-19T00:53:02;6.40;;;1.90;;
71937;SDS011;59810;48.800;9.086;2023-05-19T00:55:33;5.00;;;1.67;;
71937;SDS011;59810;48.800;9.086;2023-05-19T00:58:02;7.55;;;1.70;;
71937;SDS011;59810;48.800;9.086;2023-05-19T01:00:32;8.10;;;1.90;;
71937;SDS011;59810;48.800;9.086;2023-05-19T01:02:57;4.95;;;2.10;;
71937;SDS011;59810;48.800;9.086;2023-05-19T01:05:23;7.03;;;1.90;;
71937;SDS011;59810;48.800;9.086;2023-05-19T01:07:50;5.82;;;1.92;;
71937;SDS011;59810;48.800;9.086;2023-05-19T01:10:20;8.52;;;2.00;;
71937;SDS011;59810;48.800;9.086;2023-05-19T01:12:45;5.93;;;1.73;;
71937;SDS011;59810;48.800;9.086;2023-05-19T01:15:12;6.35;;;2.20;;
71937;SDS011;59810;48.800;9.086;2023-05-19T01:17:44;7.78;;;2.38;;
71937;SDS011;59810;48.800;9.086;2023-05-19T01:20:37;7.25;;;2.15;;
71937;SDS011;59810;48.800;9.086;2023-05-19T01:31:24;8.55;;;2.15;;
71937;SDS011;59810;48.800;9.086;2023-05-19T01:33:51;5.70;;;2.05;;
71937;SDS011;59810;48.800;9.086;2023-05-19T01:36:18;7.30;;;2.20;;
71937;SDS011;59810;48.800;9.086;2023-05-19T01:38:45;6.47;;;1.90;;
71937;SDS011;59810;48.800;9.086;2023-05-19T01:41:15;5.82;;;1.73;;
71937;SDS011;59810;48.800;9.086;2023-05-19T01:43:43;8.45;;;2.20;;
71937;SDS011;59810;48.800;9.086;2023-05-19T01:46:08;7.50;;;2.40;;
71937;SDS011;59810;48.800;9.086;2023-05-19T01:48:36;6.45;;;1.88;;
71937;SDS011;59810;48.800;9.086;2023-05-19T01:51:02;7.23;;;2.10;;
71937;SDS011;59810;48.800;9.086;2023-05-19T01:53:28;8.30;;;2.50;;
71937;SDS011;59810;48.800;9.086;2023-05-19T01:55:54;7.23;;;2.00;;
71937;SDS011;59810;48.800;9.086;2023-05-19T02:06:54;6.05;;;2.22;;
71937;SDS011;59810;48.800;9.086;2023-05-19T02:12:31;7.05;;;2.00;;
71937;SDS011;59810;48.800;9.086;2023-05-19T02:15:02;8.57;;;2.20;;
71937;SDS011;59810;48.800;9.086;2023-05-19T02:17:31;7.60;;;2.00;;
71937;SDS011;59810;48.800;9.086;2023-05-19T02:20:00;5.97;;;1.85;;
71937;SDS011;59810;48.800;9.086;2023-05-19T02:22:28;9.57;;;2.22;;
71937;SDS011;59810;48.800;9.086;2023-05-19T02:24:54;6.27;;;2.07;;
71937;SDS011;59810;48.800;9.086;2023-05-19T02:27:20;7.35;;;2.55;;
71937;SDS011;59810;48.800;9.086;2023-05-19T02:29:46;6.63;;;2.43;;
71937;SDS011;59810;48.800;9.086;2023-05-19T02:32:11;6.70;;;2.87;;
71937;SDS011;59810;48.800;9.086;2023-05-19T02:34:39;6.28;;;2.35;;
71937;SDS011;59810;48.800;9.086;2023-05-19T02:37:11;8.88;;;2.50;;
71937;SDS011;59810;48.800;9.086;2023-05-19T02:39:37;8.45;;;2.47;;
71937;SDS011;59810;48.800;9.086;2023-05-19T02:42:07;8.10;;;2.57;;
71937;SDS011;59810;48.800;9.086;2023-05-19T02:44:33;6.38;;;2.70;;
71937;SDS011;59810;48.800;9.086;2023-05-19T02:46:58;8.20;;;2.77;;
71937;SDS011;59810;48.800;9.086;2023-05-19T02:49:26;12.00;;;2.77;;
71937;SDS011;59810;48.800;9.086;2023-05-19T02:51:54;7.03;;;2.42;;
71937;SDS011;59810;48.800;9.086;2023-05-19T02:54:20;7.13;;;2.50;;
71937;SDS011;59810;48.800;9.086;2023-05-19T02:56:45;7.60;;;2.43;;
71937;SDS011;59810;48.800;9.086;2023-05-19T02:59:11;5.68;;;2.28;;
71937;SDS011;59810;48.800;9.086;2023-05-19T03:01:36;8.20;;;2.53;;
71937;SDS011;59810;48.800;9.086;2023-05-19T03:04:02;8.07;;;2.83;;
71937;SDS011;59810;48.800;9.086;2023-05-19T03:06:27;6.53;;;2.50;;
71937;SDS011;59810;48.800;9.086;2023-05-19T03:08:53;9.73;;;2.87;;
71937;SDS011;59810;48.800;9.086;2023-05-19T03:11:18;7.33;;;3.10;;
71937;SDS011;59810;48.800;9.086;2023-05-19T03:13:44;9.45;;;2.95;;
71937;SDS011;59810;48.800;9.086;2023-05-19T03:16:10;8.60;;;3.23;;
71937;SDS011;59810;48.800;9.086;2023-05-19T03:18:36;9.88;;;3.30;;
71937;SDS011;59810;48.800;9.086;2023-05-19T03:21:02;10.75;;;2.88;;
71937;SDS011;59810;48.800;9.086;2023-05-19T03:23:27;11.10;;;3.30;;
71937;SDS011;59810;48.800;9.086;2023-05-19T03:25:53;8.73;;;3.20;;
71937;SDS011;59810;48.800;9.086;2023-05-19T03:28:19;8.63;;;3.28;;
71937;SDS011;59810;48.800;9.086;2023-05-19T03:30:45;9.13;;;2.90;;
71937;SDS011;59810;48.800;9.086;2023-05-19T03:33:13;7.80;;;2.40;;
71937;SDS011;59810;48.800;9.086;2023-05-19T03:35:39;7.17;;;2.77;;
71937;SDS011;59810;48.800;9.086;2023-05-19T03:38:04;7.13;;;2.55;;
71937;SDS011;59810;48.800;9.086;2023-05-19T03:40:30;7.10;;;2.60;;
71937;SDS011;59810;48.800;9.086;2023-05-19T03:42:55;7.83;;;2.33;;
71937;SDS011;59810;48.800;9.086;2023-05-19T03:45:24;7.13;;;2.75;;
71937;SDS011;59810;48.800;9.086;2023-05-19T03:47:52;13.23;;;3.13;;
71937;SDS011;59810;48.800;9.086;2023-05-19T03:50:18;9.27;;;2.90;;
71937;SDS011;59810;48.800;9.086;2023-05-19T03:52:46;6.97;;;2.70;;
71937;SDS011;59810;48.800;9.086;2023-05-19T03:55:12;5.97;;;2.38;;
71937;SDS011;59810;48.800;9.086;2023-05-19T03:57:38;7.35;;;2.53;;
71937;SDS011;59810;48.800;9.086;2023-05-19T04:00:05;8.73;;;2.57;;
71937;SDS011;59810;48.800;9.086;2023-05-19T04:02:31;7.82;;;2.45;;
71937;SDS011;59810;48.800;9.086;2023-05-19T04:07:30;9.13;;;2.60;;
71937;SDS011;59810;48.800;9.086;2023-05-19T04:09:57;8.38;;;2.63;;
71937;SDS011;59810;48.800;9.086;2023-05-19T04:12:23;6.13;;;2.80;;
71937;SDS011;59810;48.800;9.086;2023-05-19T04:14:48;6.77;;;2.53;;
71937;SDS011;59810;48.800;9.086;2023-05-19T04:17:16;8.95;;;2.47;;
71937;SDS011;59810;48.800;9.086;2023-05-19T04:19:41;21.00;;;3.53;;
71937;SDS011;59810;48.800;9.086;2023-05-19T04:22:09;7.28;;;3.00;;
71937;SDS011;59810;48.800;9.086;2023-05-19T04:24:34;9.97;;;3.07;;
71937;SDS011;59810;48.800;9.086;2023-05-19T04:27:00;9.33;;;2.30;;
71937;SDS011;59810;48.800;9.086;2023-05-19T04:29:26;7.15;;;2.72;;
71937;SDS011;59810;48.800;9.086;2023-05-19T04:31:56;8.10;;;2.10;;
71937;SDS011;59810;48.800;9.086;2023-05-19T04:34:27;8.00;;;2.65;;
71937;SDS011;59810;48.800;9.086;2023-05-19T04:36:52;5.55;;;2.20;;
71937;SDS011;59810;48.800;9.086;2023-05-19T04:39:21;9.50;;;2.67;;
71937;SDS011;59810;48.800;9.086;2023-05-19T04:41:47;7.63;;;2.65;;
71937;SDS011;59810;48.800;9.086;2023-05-19T04:44:13;8.90;;;2.60;;
71937;SDS011;59810;48.800;9.086;2023-05-19T04:46:44;8.10;;;2.90;;
71937;SDS011;59810;48.800;9.086;2023-05-19T04:49:10;8.88;;;2.83;;
71937;SDS011;59810;48.800;9.086;2023-05-19T04:51:38;9.15;;;2.78;;
71937;SDS011;59810;48.800;9.086;2023-05-19T04:54:06;6.25;;;2.40;;
71937;SDS011;59810;48.800;9.086;2023-05-19T04:56:34;5.43;;;2.40;;
71937;SDS011;59810;48.800;9.086;2023-05-19T04:58:59;6.75;;;2.78;;
71937;SDS011;59810;48.800;9.086;2023-05-19T05:01:30;6.55;;;2.20;;
71937;SDS011;59810;48.800;9.086;2023-05-19T05:03:57;6.05;;;2.10;;
71937;SDS011;59810;48.800;9.086;2023-05-19T05:06:26;9.13;;;2.60;;
71937;SDS011;59810;48.800;9.086;2023-05-19T05:08:52;7.88;;;2.45;;
71937;SDS011;59810;48.800;9.086;2023-05-19T05:11:18;9.03;;;2.80;;
71937;SDS011;59810;48.800;9.086;2023-05-19T05:13:43;7.55;;;2.45;;
71937;SDS011;59810;48.800;9.086;2023-05-19T05:16:09;7.33;;;2.57;;
71937;SDS011;59810;48.800;9.086;2023-05-19T05:18:35;8.93;;;2.70;;
71937;SDS011;59810;48.800;9.086;2023-05-19T05:21:02;7.85;;;2.80;;
71937;SDS011;59810;48.800;9.086;2023-05-19T05:23:28;7.03;;;2.40;;
71937;SDS011;59810;48.800;9.086;2023-05-19T05:25:54;11.65;;;2.60;;
71937;SDS011;59810;48.800;9.086;2023-05-19T05:28:20;7.83;;;2.07;;
71937;SDS011;59810;48.800;9.086;2023-05-19T05:30:45;8.40;;;2.90;;
71937;SDS011;59810;48.800;9.086;2023-05-19T05:33:11;7.20;;;2.60;;
71937;SDS011;59810;48.800;9.086;2023-05-19T05:35:36;7.10;;;2.70;;
71937;SDS011;59810;48.800;9.086;2023-05-19T05:38:02;8.30;;;2.80;;
71937;SDS011;59810;48.800;9.086;2023-05-19T05:40:32;7.47;;;2.78;;
71937;SDS011;59810;48.800;9.086;2023-05-19T05:42:58;7.22;;;2.60;;
71937;SDS011;59810;48.800;9.086;2023-05-19T05:45:25;6.65;;;2.42;;
71937;SDS011;59810;48.800;9.086;2023-05-19T05:47:53;7.77;;;2.70;;
71937;SDS011;59810;48.800;9.086;2023-05-19T05:50:21;6.95;;;2.85;;
71937;SDS011;59810;48.800;9.086;2023-05-19T05:52:46;6.18;;;2.58;;
71937;SDS011;59810;48.800;9.086;2023-05-19T05:55:12;9.87;;;2.50;;
71937;SDS011;59810;48.800;9.086;2023-05-19T05:57:44;9.05;;;2.97;;
71937;SDS011;59810;48.800;9.086;2023-05-19T06:00:09;7.43;;;2.60;;
71937;SDS011;59810;48.800;9.086;2023-05-19T06:02:40;9.43;;;2.55;;
71937;SDS011;59810;48.800;9.086;2023-05-19T06:05:10;8.47;;;3.30;;
71937;SDS011;59810;48.800;9.086;2023-05-19T06:07:36;8.75;;;2.67;;
71937;SDS011;59810;48.800;9.086;2023-05-19T06:10:07;9.75;;;2.67;;
71937;SDS011;59810;48.800;9.086;2023-05-19T06:12:34;8.88;;;2.90;;
71937;SDS011;59810;48.800;9.086;2023-05-19T06:15:02;8.43;;;3.03;;
71937;SDS011;59810;48.800;9.086;2023-05-19T06:17:28;8.60;;;2.57;;
71937;SDS011;59810;48.800;9.086;2023-05-19T06:19:54;5.90;;;2.60;;
71937;SDS011;59810;48.800;9.086;2023-05-19T06:22:19;10.30;;;2.80;;
71937;SDS011;59810;48.800;9.086;2023-05-19T06:24:44;7.97;;;2.50;;
71937;SDS011;59810;48.800;9.086;2023-05-19T06:27:12;7.22;;;3.13;;
71937;SDS011;59810;48.800;9.086;2023-05-19T06:29:37;8.73;;;2.63;;
71937;SDS011;59810;48.800;9.086;2023-05-19T06:32:03;7.23;;;2.57;;
71937;SDS011;59810;48.800;9.086;2023-05-19T06:34:28;8.83;;;2.70;;
71937;SDS011;59810;48.800;9.086;2023-05-19T06:36:54;9.13;;;2.83;;
71937;SDS011;59810;48.800;9.086;2023-05-19T06:39:19;8.87;;;2.63;;
71937;SDS011;59810;48.800;9.086;2023-05-19T06:41:47;8.80;;;2.53;;
71937;SDS011;59810;48.800;9.086;2023-05-19T06:44:12;8.82;;;3.17;;
71937;SDS011;59810;48.800;9.086;2023-05-19T06:46:38;7.77;;;2.40;;
71937;SDS011;59810;48.800;9.086;2023-05-19T06:49:03;9.37;;;2.60;;
71937;SDS011;59810;48.800;9.086;2023-05-19T06:51:31;7.55;;;2.35;;
71937;SDS011;59810;48.800;9.086;2023-05-19T06:53:56;8.80;;;2.70;;
71937;SDS011;59810;48.800;9.086;2023-05-19T06:56:24;11.00;;;2.70;;
71937;SDS011;59810;48.800;9.086;2023-05-19T06:58:52;8.48;;;2.95;;
71937;SDS011;59810;48.800;9.086;2023-05-19T07:01:17;8.20;;;2.77;;
71937;SDS011;59810;48.800;9.086;2023-05-19T07:03:42;10.37;;;2.50;;
71937;SDS011;59810;48.800;9.086;2023-05-19T07:06:08;10.05;;;2.80;;
71937;SDS011;59810;48.800;9.086;2023-05-19T07:08:33;8.27;;;2.60;;
71937;SDS011;59810;48.800;9.086;2023-05-19T07:11:00;11.73;;;4.05;;
71937;SDS011;59810;48.800;9.086;2023-05-19T07:13:29;10.83;;;2.77;;
71937;SDS011;59810;48.800;9.086;2023-05-19T07:15:54;10.00;;;3.08;;
71937;SDS011;59810;48.800;9.086;2023-05-19T07:18:20;8.73;;;3.10;;
71937;SDS011;59810;48.800;9.086;2023-05-19T07:20:48;8.85;;;3.20;;
71937;SDS011;59810;48.800;9.086;2023-05-19T07:23:16;10.23;;;2.70;;
71937;SDS011;59810;48.800;9.086;2023-05-19T07:25:41;9.07;;;2.73;;
71937;SDS011;59810;48.800;9.086;2023-05-19T07:28:06;11.67;;;3.80;;
71937;SDS011;59810;48.800;9.086;2023-05-19T07:30:32;9.33;;;2.90;;
71937;SDS011;59810;48.800;9.086;2023-05-19T07:32:59;6.97;;;2.95;;
71937;SDS011;59810;48.800;9.086;2023-05-19T07:35:31;10.43;;;3.43;;
71937;SDS011;59810;48.800;9.086;2023-05-19T07:37:56;9.60;;;2.80;;
71937;SDS011;59810;48.800;9.086;2023-05-19T07:40:22;8.17;;;2.80;;
71937;SDS011;59810;48.800;9.086;2023-05-19T07:42:48;8.73;;;3.00;;
71937;SDS011;59810;48.800;9.086;2023-05-19T07:45:13;9.63;;;2.80;;
71937;SDS011;59810;48.800;9.086;2023-05-19T07:47:38;9.03;;;2.97;;
71937;SDS011;59810;48.800;9.086;2023-05-19T07:50:05;8.52;;;2.90;;
71937;SDS011;59810;48.800;9.086;2023-05-19T07:52:33;8.20;;;2.90;;
71937;SDS011;59810;48.800;9.086;2023-05-19T07:54:59;8.03;;;2.90;;
71937;SDS011;59810;48.800;9.086;2023-05-19T07:57:26;11.67;;;3.63;;
71937;SDS011;59810;48.800;9.086;2023-05-19T07:59:52;10.57;;;3.05;;
71937;SDS011;59810;48.800;9.086;2023-05-19T08:02:17;10.57;;;2.50;;
71937;SDS011;59810;48.800;9.086;2023-05-19T08:04:45;7.90;;;2.80;;
71937;SDS011;59810;48.800;9.086;2023-05-19T08:07:12;9.80;;;2.78;;
71937;SDS011;59810;48.800;9.086;2023-05-19T08:09:37;7.07;;;2.67;;
71937;SDS011;59810;48.800;9.086;2023-05-19T08:12:03;7.47;;;2.77;;
71937;SDS011;59810;48.800;9.086;2023-05-19T08:14:29;8.38;;;2.70;;
71937;SDS011;59810;48.800;9.086;2023-05-19T08:16:57;9.35;;;3.00;;
71937;SDS011;59810;48.800;9.086;2023-05-19T08:19:22;8.03;;;3.33;;
71937;SDS011;59810;48.800;9.086;2023-05-19T08:21:48;8.00;;;3.60;;
71937;SDS011;59810;48.800;9.086;2023-05-19T08:24:16;12.87;;;2.73;;
71937;SDS011;59810;48.800;9.086;2023-05-19T08:26:42;10.35;;;3.05;;
71937;SDS011;59810;48.800;9.086;2023-05-19T08:29:08;8.13;;;2.70;;
71937;SDS011;59810;48.800;9.086;2023-05-19T08:31:33;8.00;;;2.60;;
71937;SDS011;59810;48.800;9.086;2023-05-19T08:33:59;12.67;;;2.73;;
71937;SDS011;59810;48.800;9.086;2023-05-19T08:36:27;7.57;;;2.90;;
71937;SDS011;59810;48.800;9.086;2023-05-19T08:38:53;8.18;;;2.70;;
71937;SDS011;59810;48.800;9.086;2023-05-19T08:41:20;6.72;;;2.72;;
71937;SDS011;59810;48.800;9.086;2023-05-19T08:43:48;10.73;;;2.93;;
71937;SDS011;59810;48.800;9.086;2023-05-19T08:46:14;9.52;;;2.70;;
71937;SDS011;59810;48.800;9.086;2023-05-19T08:48:41;8.77;;;2.97;;
71937;SDS011;59810;48.800;9.086;2023-05-19T08:53:59;9.67;;;2.63;;
71937;SDS011;59810;48.800;9.086;2023-05-19T08:56:42;8.27;;;3.38;;
71937;SDS011;59810;48.800;9.086;2023-05-19T08:59:09;9.25;;;2.90;;
71937;SDS011;59810;48.800;9.086;2023-05-19T09:01:36;9.13;;;3.20;;
71937;SDS011;59810;48.800;9.086;2023-05-19T09:04:03;7.70;;;3.10;;
71937;SDS011;59810;48.800;9.086;2023-05-19T09:06:30;10.00;;;2.57;;
71937;SDS011;59810;48.800;9.086;2023-05-19T09:08:56;8.63;;;2.90;;
71937;SDS011;59810;48.800;9.086;2023-05-19T09:11:21;9.37;;;2.50;;
71937;SDS011;59810;48.800;9.086;2023-05-19T09:13:50;10.85;;;2.75;;
71937;SDS011;59810;48.800;9.086;2023-05-19T09:16:15;7.65;;;2.58;;
71937;SDS011;59810;48.800;9.086;2023-05-19T09:18:53;8.40;;;2.65;;
71937;SDS011;59810;48.800;9.086;2023-05-19T09:21:25;7.17;;;2.67;;
71937;SDS011;59810;48.800;9.086;2023-05-19T09:23:52;10.13;;;2.60;;
71937;SDS011;59810;48.800;9.086;2023-05-19T09:26:20;8.85;;;3.08;;
71937;SDS011;59810;48.800;9.086;2023-05-19T09:28:47;9.73;;;2.75;;
71937;SDS011;59810;48.800;9.086;2023-05-19T09:31:13;6.67;;;2.53;;
71937;SDS011;59810;48.800;9.086;2023-05-19T09:33:39;8.25;;;3.55;;
71937;SDS011;59810;48.800;9.086;2023-05-19T09:36:11;6.97;;;2.50;;
71937;SDS011;59810;48.800;9.086;2023-05-19T09:38:37;8.10;;;2.70;;
71937;SDS011;59810;48.800;9.086;2023-05-19T09:41:03;10.40;;;2.92;;
71937;SDS011;59810;48.800;9.086;2023-05-19T09:43:30;7.97;;;2.47;;
71937;SDS011;59810;48.800;9.086;2023-05-19T09:46:07;8.73;;;2.28;;
71937;SDS011;59810;48.800;9.086;2023-05-19T09:48:34;7.70;;;2.53;;
71937;SDS011;59810;48.800;9.086;2023-05-19T09:51:01;11.25;;;2.65;;
71937;SDS011;59810;48.800;9.086;2023-05-19T09:53:29;11.10;;;2.90;;
71937;SDS011;59810;48.800;9.086;2023-05-19T09:55:56;8.27;;;2.80;;
71937;SDS011;59810;48.800;9.086;2023-05-19T09:58:22;10.20;;;3.10;;
71937;SDS011;59810;48.800;9.086;2023-05-19T10:00:48;10.30;;;2.92;;
71937;SDS011;59810;48.800;9.086;2023-05-19T10:03:14;12.20;;;2.92;;
71937;SDS011;59810;48.800;9.086;2023-05-19T10:05:41;11.93;;;2.80;;
71937;SDS011;59810;48.800;9.086;2023-05-19T10:08:07;7.60;;;2.58;;
71937;SDS011;59810;48.800;9.086;2023-05-19T10:10:34;7.68;;;2.67;;
71937;SDS011;59810;48.800;9.086;2023-05-19T10:13:04;10.73;;;2.80;;
71937;SDS011;59810;48.800;9.086;2023-05-19T10:15:30;8.52;;;2.60;;
71937;SDS011;59810;48.800;9.086;2023-05-19T10:17:56;7.47;;;3.23;;
71937;SDS011;59810;48.800;9.086;2023-05-19T10:20:23;8.15;;;2.95;;
71937;SDS011;59810;48.800;9.086;2023-05-19T10:22:50;9.15;;;2.80;;
71937;SDS011;59810;48.800;9.086;2023-05-19T10:25:18;8.00;;;2.53;;
71937;SDS011;59810;48.800;9.086;2023-05-19T10:27:52;8.25;;;2.70;;
71937;SDS011;59810;48.800;9.086;2023-05-19T10:30:28;8.43;;;2.40;;
71937;SDS011;59810;48.800;9.086;2023-05-19T10:32:55;10.07;;;2.95;;
71937;SDS011;59810;48.800;9.086;2023-05-19T10:40:38;7.57;;;2.67;;
71937;SDS011;59810;48.800;9.086;2023-05-19T10:43:28;8.93;;;2.50;;
71937;SDS011;59810;48.800;9.086;2023-05-19T10:46:02;7.85;;;2.67;;
71937;SDS011;59810;48.800;9.086;2023-05-19T10:48:28;9.07;;;2.60;;
71937;SDS011;59810;48.800;9.086;2023-05-19T10:50:57;7.40;;;2.58;;
71937;SDS011;59810;48.800;9.086;2023-05-19T10:53:29;7.90;;;2.60;;
71937;SDS011;59810;48.800;9.086;2023-05-19T10:55:55;11.13;;;2.72;;
71937;SDS011;59810;48.800;9.086;2023-05-19T11:01:12;7.97;;;2.70;;
71937;SDS011;59810;48.800;9.086;2023-05-19T11:03:45;7.25;;;2.80;;
71937;SDS011;59810;48.800;9.086;2023-05-19T11:06:19;6.67;;;2.63;;
71937;SDS011;59810;48.800;9.086;2023-05-19T11:08:45;8.13;;;2.67;;
71937;SDS011;59810;48.800;9.086;2023-05-19T11:11:17;9.27;;;3.10;;
71937;SDS011;59810;48.800;9.086;2023-05-19T11:13:46;11.60;;;2.83;;
71937;SDS011;59810;48.800;9.086;2023-05-19T11:16:17;9.88;;;2.80;;
71937;SDS011;59810;48.800;9.086;2023-05-19T11:18:46;6.23;;;2.93;;
71937;SDS011;59810;48.800;9.086;2023-05-19T11:21:13;10.35;;;2.88;;
71937;SDS011;59810;48.800;9.086;2023-05-19T11:23:38;9.57;;;2.90;;
71937;SDS011;59810;48.800;9.086;2023-05-19T11:26:05;7.35;;;2.90;;
71937;SDS011;59810;48.800;9.086;2023-05-19T11:28:32;9.13;;;2.97;;
71937;SDS011;59810;48.800;9.086;2023-05-19T11:30:57;11.02;;;2.83;;
71937;SDS011;59810;48.800;9.086;2023-05-19T11:33:26;8.27;;;2.60;;
71937;SDS011;59810;48.800;9.086;2023-05-19T11:35:52;6.70;;;2.77;;
71937;SDS011;59810;48.800;9.086;2023-05-19T11:38:24;10.20;;;2.42;;
71937;SDS011;59810;48.800;9.086;2023-05-19T11:40:52;9.02;;;2.85;;
71937;SDS011;59810;48.800;9.086;2023-05-19T11:43:23;6.75;;;2.08;;
71937;SDS011;59810;48.800;9.086;2023-05-19T11:45:54;7.03;;;2.20;;
71937;SDS011;59810;48.800;9.086;2023-05-19T11:48:20;7.70;;;2.20;;
71937;SDS011;59810;48.800;9.086;2023-05-19T11:50:48;7.38;;;2.70;;
71937;SDS011;59810;48.800;9.086;2023-05-19T11:53:14;7.47;;;2.50;;
71937;SDS011;59810;48.800;9.086;2023-05-19T11:55:46;6.93;;;2.60;;
71937;SDS011;59810;48.800;9.086;2023-05-19T11:58:12;6.97;;;2.53;;
71937;SDS011;59810;48.800;9.086;2023-05-19T12:00:38;8.65;;;2.80;;
71937;SDS011;59810;48.800;9.086;2023-05-19T12:03:05;8.90;;;2.37;;
71937;SDS011;59810;48.800;9.086;2023-05-19T12:05:31;9.00;;;3.13;;
71937;SDS011;59810;48.800;9.086;2023-05-19T12:07:58;8.10;;;3.20;;
71937;SDS011;59810;48.800;9.086;2023-05-19T12:10:25;8.45;;;3.08;;
71937;SDS011;59810;48.800;9.086;2023-05-19T12:12:52;8.40;;;2.63;;
71937;SDS011;59810;48.800;9.086;2023-05-19T12:15:21;7.80;;;2.97;;
71937;SDS011;59810;48.800;9.086;2023-05-19T12:17:48;8.85;;;2.90;;
71937;SDS011;59810;48.800;9.086;2023-05-19T12:20:14;10.20;;;3.00;;
71937;SDS011;59810;48.800;9.086;2023-05-19T12:22:42;8.90;;;2.67;;
71937;SDS011;59810;48.800;9.086;2023-05-19T12:25:08;8.27;;;2.70;;
71937;SDS011;59810;48.800;9.086;2023-05-19T12:27:34;6.97;;;2.50;;
71937;SDS011;59810;48.800;9.086;2023-05-19T12:30:03;9.88;;;2.80;;
71937;SDS011;59810;48.800;9.086;2023-05-19T12:32:32;9.85;;;2.50;;
71937;SDS011;59810;48.800;9.086;2023-05-19T12:35:00;7.68;;;2.58;;
71937;SDS011;59810;48.800;9.086;2023-05-19T12:37:32;6.80;;;2.20;;
71937;SDS011;59810;48.800;9.086;2023-05-19T12:39:59;6.75;;;2.50;;
71937;SDS011;59810;48.800;9.086;2023-05-19T12:42:28;6.97;;;2.50;;
71937;SDS011;59810;48.800;9.086;2023-05-19T12:45:02;6.93;;;2.50;;
71937;SDS011;59810;48.800;9.086;2023-05-19T12:47:33;11.13;;;3.00;;
71937;SDS011;59810;48.800;9.086;2023-05-19T12:50:02;5.50;;;2.70;;
71937;SDS011;59810;48.800;9.086;2023-05-19T12:52:28;8.52;;;2.88;;
71937;SDS011;59810;48.800;9.086;2023-05-19T12:55:05;7.60;;;2.72;;
71937;SDS011;59810;48.800;9.086;2023-05-19T12:57:33;9.05;;;3.10;;
71937;SDS011;59810;48.800;9.086;2023-05-19T13:00:20;7.53;;;2.60;;
71937;SDS011;59810;48.800;9.086;2023-05-19T13:05:25;9.15;;;3.22;;
71937;SDS011;59810;48.800;9.086;2023-05-19T13:07:52;12.57;;;3.20;;
71937;SDS011;59810;48.800;9.086;2023-05-19T13:10:29;9.15;;;2.67;;
71937;SDS011;59810;48.800;9.086;2023-05-19T13:12:57;7.53;;;2.83;;
71937;SDS011;59810;48.800;9.086;2023-05-19T13:15:24;9.33;;;2.70;;
71937;SDS011;59810;48.800;9.086;2023-05-19T13:17:51;7.60;;;2.70;;
71937;SDS011;59810;48.800;9.086;2023-05-19T13:20:17;9.52;;;3.17;;
71937;SDS011;59810;48.800;9.086;2023-05-19T13:22:43;7.05;;;2.90;;
71937;SDS011;59810;48.800;9.086;2023-05-19T13:25:08;7.43;;;2.73;;
71937;SDS011;59810;48.800;9.086;2023-05-19T13:27:34;8.63;;;2.47;;
71937;SDS011;59810;48.800;9.086;2023-05-19T13:30:04;10.20;;;2.77;;
71937;SDS011;59810;48.800;9.086;2023-05-19T13:32:31;10.07;;;2.67;;
71937;SDS011;59810;48.800;9.086;2023-05-19T13:35:01;9.45;;;2.35;;
71937;SDS011;59810;48.800;9.086;2023-05-19T13:37:27;12.38;;;3.00;;
71937;SDS011;59810;48.800;9.086;2023-05-19T13:39:53;8.57;;;2.83;;
71937;SDS011;59810;48.800;9.086;2023-05-19T13:42:25;9.05;;;3.38;;
71937;SDS011;59810;48.800;9.086;2023-05-19T13:44:54;8.93;;;2.90;;
71937;SDS011;59810;48.800;9.086;2023-05-19T13:47:22;8.57;;;2.57;;
71937;SDS011;59810;48.800;9.086;2023-05-19T13:49:48;7.50;;;2.75;;
71937;SDS011;59810;48.800;9.086;2023-05-19T13:52:14;8.10;;;3.10;;
71937;SDS011;59810;48.800;9.086;2023-05-19T13:54:39;9.00;;;2.70;;
71937;SDS011;59810;48.800;9.086;2023-05-19T13:57:05;6.77;;;2.80;;
71937;SDS011;59810;48.800;9.086;2023-05-19T13:59:30;8.77;;;2.80;;
71937;SDS011;59810;48.800;9.086;2023-05-19T14:01:56;9.65;;;3.00;;
71937;SDS011;59810;48.800;9.086;2023-05-19T14:04:21;7.20;;;2.87;;
71937;SDS011;59810;48.800;9.086;2023-05-19T14:06:48;9.73;;;2.92;;
71937;SDS011;59810;48.800;9.086;2023-05-19T14:09:14;7.93;;;3.17;;
71937;SDS011;59810;48.800;9.086;2023-05-19T14:11:40;6.82;;;2.70;;
71937;SDS011;59810;48.800;9.086;2023-05-19T14:14:06;7.20;;;3.17;;
71937;SDS011;59810;48.800;9.086;2023-05-19T14:16:31;9.30;;;2.80;;
71937;SDS011;59810;48.800;9.086;2023-05-19T14:18:59;7.50;;;2.78;;
71937;SDS011;59810;48.800;9.086;2023-05-19T14:21:24;9.73;;;2.90;;
71937;SDS011;59810;48.800;9.086;2023-05-19T14:23:52;9.00;;;2.93;;
71937;SDS011;59810;48.800;9.086;2023-05-19T14:26:17;7.00;;;3.30;;
71937;SDS011;59810;48.800;9.086;2023-05-19T14:28:44;10.35;;;2.97;;
71937;SDS011;59810;48.800;9.086;2023-05-19T14:31:13;6.83;;;2.57;;
71937;SDS011;59810;48.800;9.086;2023-05-19T14:33:39;8.60;;;3.00;;
71937;SDS011;59810;48.800;9.086;2023-05-19T14:36:06;7.45;;;2.60;;
71937;SDS011;59810;48.800;9.086;2023-05-19T14:38:32;9.05;;;2.80;;
71937;SDS011;59810;48.800;9.086;2023-05-19T14:40:57;8.30;;;3.57;;
71937;SDS011;59810;48.800;9.086;2023-05-19T14:43:23;6.43;;;3.03;;
71937;SDS011;59810;48.800;9.086;2023-05-19T14:45:48;9.80;;;3.00;;
71937;SDS011;59810;48.800;9.086;2023-05-19T14:48:14;7.83;;;3.17;;
71937;SDS011;59810;48.800;9.086;2023-05-19T14:50:43;8.52;;;3.08;;
71937;SDS011;59810;48.800;9.086;2023-05-19T14:53:12;10.57;;;3.50;;
71937;SDS011;59810;48.800;9.086;2023-05-19T14:55:37;10.70;;;2.85;;
71937;SDS011;59810;48.800;9.086;2023-05-19T14:58:02;6.77;;;2.40;;
71937;SDS011;59810;48.800;9.086;2023-05-19T15:00:28;8.17;;;2.83;;
71937;SDS011;59810;48.800;9.086;2023-05-19T15:02:53;7.55;;;3.00;;
71937;SDS011;59810;48.800;9.086;2023-05-19T15:05:21;8.00;;;3.30;;
71937;SDS011;59810;48.800;9.086;2023-05-19T15:07:49;8.20;;;3.13;;
71937;SDS011;59810;48.800;9.086;2023-05-19T15:10:17;9.18;;;3.60;;
71937;SDS011;59810;48.800;9.086;2023-05-19T15:12:45;6.75;;;2.70;;
71937;SDS011;59810;48.800;9.086;2023-05-19T15:15:11;8.27;;;2.80;;
71937;SDS011;59810;48.800;9.086;2023-05-19T15:17:41;7.95;;;3.25;;
71937;SDS011;59810;48.800;9.086;2023-05-19T15:20:07;7.90;;;2.80;;
71937;SDS011;59810;48.800;9.086;2023-05-19T15:22:33;7.90;;;3.03;;